sensor_id;sensor_type;location;lat;lon;timestamp;temperature;humidity
33645;DHT22;19986;48.190;16.366;2023-12-07T00:00:59;6.80;99.90
33645;DHT22;19986;48.190;16.366;2023-12-07T00:03:25;6.80;99.90
33645;DHT22;19986;48.190;16.366;2023-12-07T00:05:51;6.80;99.90
33645;DHT22;19986;48.190;16.366;2023-12-07T00:08:17;6.80;99.90
33645;DHT22;19986;48.190;16.366;2023-12-07T00:10:43;6.90;99.90
33645;DHT22;19986;48.190;16.366;2023-12-07T00:13:08;6.90;99.90
33645;DHT22;19986;48.190;16.366;2023-12-07T00:15:34;6.80;99.90
33645;DHT22;19986;48.190;16.366;2023-12-07T00:18:00;6.80;99.90
33645;DHT22;19986;48.190;16.366;2023-12-07T00:20:29;6.70;99.90
33645;DHT22;19986;48.190;16.366;2023-12-07T00:22:54;6.70;99.90
33645;DHT22;19986;48.190;16.366;2023-12-07T00:25:21;6.70;99.90
33645;DHT22;19986;48.190;16.366;2023-12-07T00:27:48;6.70;99.90
33645;DHT22;19986;48.190;16.366;2023-12-07T00:30:14;6.70;99.90
33645;DHT22;19986;48.190;16.366;2023-12-07T00:32:40;6.60;99.90
33645;DHT22;19986;48.190;16.366;2023-12-07T00:35:10;6.70;99.90
33645;DHT22;19986;48.190;16.366;2023-12-07T00:37:36;6.70;99.90
33645;DHT22;19986;48.190;16.366;2023-12-07T00:40:02;6.70;99.90
33645;DHT22;19986;48.190;16.366;2023-12-07T00:42:28;6.70;99.90
33645;DHT22;19986;48.190;16.366;2023-12-07T00:44:54;6.70;99.90
33645;DHT22;19986;48.190;16.366;2023-12-07T00:47:20;6.70;99.90
33645;DHT22;19986;48.190;16.366;2023-12-07T00:49:47;6.60;99.90
33645;DHT22;19986;48.190;16.366;2023-12-07T00:52:13;6.70;99.90
33645;DHT22;19986;48.190;16.366;2023-12-07T00:54:39;6.70;99.90
33645;DHT22;19986;48.190;16.366;2023-12-07T00:57:06;6.70;99.90
33645;DHT22;19986;48.190;16.366;2023-12-07T00:59:32;6.70;99.90
33645;DHT22;19986;48.190;16.366;2023-12-07T01:02:06;6.70;99.90
33645;DHT22;19986;48.190;16.366;2023-12-07T01:04:33;6.70;99.90
33645;DHT22;19986;48.190;16.366;2023-12-07T01:06:59;6.70;99.90
33645;DHT22;19986;48.190;16.366;2023-12-07T01:09:26;6.70;99.90
33645;DHT22;19986;48.190;16.366;2023-12-07T01:11:52;6.60;99.90
33645;DHT22;19986;48.190;16.366;2023-12-07T01:14:18;6.60;99.90
33645;DHT22;19986;48.190;16.366;2023-12-07T01:16:44;6.60;99.90
33645;DHT22;19986;48.190;16.366;2023-12-07T01:19:11;6.50;99.90
33645;DHT22;19986;48.190;16.366;2023-12-07T01:21:41;6.50;99.90
33645;DHT22;19986;48.190;16.366;2023-12-07T01:24:08;6.50;99.90
33645;DHT22;19986;48.190;16.366;2023-12-07T01:26:34;6.50;99.90
33645;DHT22;19986;48.190;16.366;2023-12-07T01:28:59;6.40;99.90
33645;DHT22;19986;48.190;16.366;2023-12-07T01:31:25;6.40;99.90
33645;DHT22;19986;48.190;16.366;2023-12-07T01:33:51;6.40;99.90
33645;DHT22;19986;48.190;16.366;2023-12-07T01:36:17;6.30;99.90
33645;DHT22;19986;48.190;16.366;2023-12-07T01:38:43;6.30;99.90
33645;DHT22;19986;48.190;16.366;2023-12-07T01:41:10;6.20;99.90
33645;DHT22;19986;48.190;16.366;2023-12-07T01:43:36;6.30;99.90
33645;DHT22;19986;48.190;16.366;2023-12-07T01:46:02;6.30;99.90
33645;DHT22;19986;48.190;16.366;2023-12-07T01:48:29;6.30;99.90
33645;DHT22;19986;48.190;16.366;2023-12-07T01:50:58;6.30;99.90
33645;DHT22;19986;48.190;16.366;2023-12-07T01:53:25;6.30;99.90
33645;DHT22;19986;48.190;16.366;2023-12-07T01:55:56;6.30;99.90
33645;DHT22;19986;48.190;16.366;2023-12-07T01:58:23;6.30;99.90
33645;DHT22;19986;48.190;16.366;2023-12-07T02:00:49;6.30;99.90
33645;DHT22;19986;48.190;16.366;2023-12-07T02:03:16;6.20;99.90
33645;DHT22;19986;48.190;16.366;2023-12-07T02:05:47;6.30;99.90
33645;DHT22;19986;48.190;16.366;2023-12-07T02:08:15;6.30;99.90
33645;DHT22;19986;48.190;16.366;2023-12-07T02:10:41;6.30;99.90
33645;DHT22;19986;48.190;16.366;2023-12-07T02:13:07;6.30;99.90
33645;DHT22;19986;48.190;16.366;2023-12-07T02:15:34;6.30;99.90
33645;DHT22;19986;48.190;16.366;2023-12-07T02:18:10;6.40;99.90
33645;DHT22;19986;48.190;16.366;2023-12-07T02:23:17;6.30;99.90
33645;DHT22;19986;48.190;16.366;2023-12-07T02:25:54;6.30;99.90
33645;DHT22;19986;48.190;16.366;2023-12-07T02:28:22;6.30;99.90
33645;DHT22;19986;48.190;16.366;2023-12-07T02:30:48;6.20;99.90
33645;DHT22;19986;48.190;16.366;2023-12-07T02:33:14;6.30;99.90
33645;DHT22;19986;48.190;16.366;2023-12-07T02:35:43;6.20;99.90
33645;DHT22;19986;48.190;16.366;2023-12-07T02:38:09;6.30;99.90
33645;DHT22;19986;48.190;16.366;2023-12-07T02:40:35;6.30;99.90
33645;DHT22;19986;48.190;16.366;2023-12-07T02:43:03;6.20;99.90
33645;DHT22;19986;48.190;16.366;2023-12-07T02:45:30;6.20;99.90
33645;DHT22;19986;48.190;16.366;2023-12-07T02:47:57;6.20;99.90
33645;DHT22;19986;48.190;16.366;2023-12-07T02:50:24;6.20;99.90
33645;DHT22;19986;48.190;16.366;2023-12-07T02:52:50;6.20;99.90
33645;DHT22;19986;48.190;16.366;2023-12-07T02:55:16;6.20;99.90
33645;DHT22;19986;48.190;16.366;2023-12-07T02:57:42;6.10;99.90
33645;DHT22;19986;48.190;16.366;2023-12-07T03:00:09;6.10;99.90
33645;DHT22;19986;48.190;16.366;2023-12-07T03:02:38;6.10;99.90
33645;DHT22;19986;48.190;16.366;2023-12-07T03:05:05;6.10;99.90
33645;DHT22;19986;48.190;16.366;2023-12-07T03:07:35;6.10;99.90
33645;DHT22;19986;48.190;16.366;2023-12-07T03:10:01;6.10;99.90
33645;DHT22;19986;48.190;16.366;2023-12-07T03:12:28;6.10;99.90
33645;DHT22;19986;48.190;16.366;2023-12-07T03:14:55;6.10;99.90
33645;DHT22;19986;48.190;16.366;2023-12-07T03:17:21;6.20;99.90
33645;DHT22;19986;48.190;16.366;2023-12-07T03:19:48;6.20;99.90
33645;DHT22;19986;48.190;16.366;2023-12-07T03:22:14;6.20;99.90
33645;DHT22;19986;48.190;16.366;2023-12-07T03:24:46;6.20;99.90
33645;DHT22;19986;48.190;16.366;2023-12-07T03:27:13;6.20;99.90
33645;DHT22;19986;48.190;16.366;2023-12-07T03:29:39;6.20;99.90
33645;DHT22;19986;48.190;16.366;2023-12-07T03:32:05;6.20;99.90
33645;DHT22;19986;48.190;16.366;2023-12-07T03:34:31;6.20;99.90
33645;DHT22;19986;48.190;16.366;2023-12-07T03:36:57;6.20;99.90
33645;DHT22;19986;48.190;16.366;2023-12-07T03:39:23;6.30;99.90
33645;DHT22;19986;48.190;16.366;2023-12-07T03:41:50;6.30;99.90
33645;DHT22;19986;48.190;16.366;2023-12-07T03:44:16;6.30;99.90
33645;DHT22;19986;48.190;16.366;2023-12-07T03:46:43;6.30;99.90
33645;DHT22;19986;48.190;16.366;2023-12-07T03:49:08;6.30;99.90
33645;DHT22;19986;48.190;16.366;2023-12-07T03:51:34;6.30;99.90
33645;DHT22;19986;48.190;16.366;2023-12-07T03:54:03;6.30;99.90
33645;DHT22;19986;48.190;16.366;2023-12-07T03:56:30;6.30;99.90
33645;DHT22;19986;48.190;16.366;2023-12-07T03:58:56;6.40;99.90
33645;DHT22;19986;48.190;16.366;2023-12-07T04:01:23;6.40;99.90
33645;DHT22;19986;48.190;16.366;2023-12-07T04:03:53;6.40;99.90
33645;DHT22;19986;48.190;16.366;2023-12-07T04:06:21;6.50;99.90
33645;DHT22;19986;48.190;16.366;2023-12-07T04:08:47;6.50;99.90
33645;DHT22;19986;48.190;16.366;2023-12-07T04:11:13;6.60;99.90
33645;DHT22;19986;48.190;16.366;2023-12-07T04:13:40;6.50;99.90
33645;DHT22;19986;48.190;16.366;2023-12-07T04:16:07;6.50;99.90
33645;DHT22;19986;48.190;16.366;2023-12-07T04:18:33;6.40;99.90
33645;DHT22;19986;48.190;16.366;2023-12-07T04:20:59;6.40;99.90
33645;DHT22;19986;48.190;16.366;2023-12-07T04:23:25;6.50;99.90
33645;DHT22;19986;48.190;16.366;2023-12-07T04:25:51;6.40;99.90
33645;DHT22;19986;48.190;16.366;2023-12-07T04:28:16;6.40;99.90
33645;DHT22;19986;48.190;16.366;2023-12-07T04:30:42;6.50;99.90
33645;DHT22;19986;48.190;16.366;2023-12-07T04:33:08;6.50;99.90
33645;DHT22;19986;48.190;16.366;2023-12-07T04:35:34;6.50;99.90
33645;DHT22;19986;48.190;16.366;2023-12-07T04:38:00;6.50;99.90
33645;DHT22;19986;48.190;16.366;2023-12-07T04:40:27;6.50;99.90
33645;DHT22;19986;48.190;16.366;2023-12-07T04:42:52;6.60;99.90
33645;DHT22;19986;48.190;16.366;2023-12-07T04:45:18;6.50;99.90
33645;DHT22;19986;48.190;16.366;2023-12-07T04:47:44;6.60;99.90
33645;DHT22;19986;48.190;16.366;2023-12-07T04:50:11;6.60;99.90
33645;DHT22;19986;48.190;16.366;2023-12-07T04:52:37;6.50;99.90
33645;DHT22;19986;48.190;16.366;2023-12-07T04:55:05;6.50;99.90
33645;DHT22;19986;48.190;16.366;2023-12-07T04:57:35;6.50;99.90
33645;DHT22;19986;48.190;16.366;2023-12-07T05:00:02;6.50;99.90
33645;DHT22;19986;48.190;16.366;2023-12-07T05:02:32;6.40;99.90
33645;DHT22;19986;48.190;16.366;2023-12-07T05:04:58;6.50;99.90
33645;DHT22;19986;48.190;16.366;2023-12-07T05:07:24;6.50;99.90
33645;DHT22;19986;48.190;16.366;2023-12-07T05:09:50;6.50;99.90
33645;DHT22;19986;48.190;16.366;2023-12-07T05:12:17;6.50;99.90
33645;DHT22;19986;48.190;16.366;2023-12-07T05:14:43;6.60;99.90
33645;DHT22;19986;48.190;16.366;2023-12-07T05:17:09;6.50;99.90
33645;DHT22;19986;48.190;16.366;2023-12-07T05:19:35;6.50;99.90
33645;DHT22;19986;48.190;16.366;2023-12-07T05:22:01;6.50;99.90
33645;DHT22;19986;48.190;16.366;2023-12-07T05:24:27;6.50;99.90
33645;DHT22;19986;48.190;16.366;2023-12-07T05:26:53;6.40;99.90
33645;DHT22;19986;48.190;16.366;2023-12-07T05:29:19;6.50;99.90
33645;DHT22;19986;48.190;16.366;2023-12-07T05:31:48;6.50;99.90
33645;DHT22;19986;48.190;16.366;2023-12-07T05:34:15;6.50;99.90
33645;DHT22;19986;48.190;16.366;2023-12-07T05:36:41;6.50;99.90
33645;DHT22;19986;48.190;16.366;2023-12-07T05:39:06;6.50;99.90
33645;DHT22;19986;48.190;16.366;2023-12-07T05:41:33;6.40;99.90
33645;DHT22;19986;48.190;16.366;2023-12-07T05:43:59;6.50;99.90
33645;DHT22;19986;48.190;16.366;2023-12-07T05:46:24;6.50;99.90
33645;DHT22;19986;48.190;16.366;2023-12-07T05:48:51;6.60;99.90
33645;DHT22;19986;48.190;16.366;2023-12-07T05:51:17;6.60;99.90
33645;DHT22;19986;48.190;16.366;2023-12-07T05:53:44;6.50;99.90
33645;DHT22;19986;48.190;16.366;2023-12-07T05:56:10;6.50;99.90
33645;DHT22;19986;48.190;16.366;2023-12-07T05:58:37;6.50;99.90
33645;DHT22;19986;48.190;16.366;2023-12-07T06:01:03;6.60;99.90
33645;DHT22;19986;48.190;16.366;2023-12-07T06:03:29;6.60;99.90
33645;DHT22;19986;48.190;16.366;2023-12-07T06:05:55;6.50;99.90
33645;DHT22;19986;48.190;16.366;2023-12-07T06:08:22;6.40;99.90
33645;DHT22;19986;48.190;16.366;2023-12-07T06:10:48;6.40;99.90
33645;DHT22;19986;48.190;16.366;2023-12-07T06:13:14;6.40;99.90
33645;DHT22;19986;48.190;16.366;2023-12-07T06:15:40;6.40;99.90
33645;DHT22;19986;48.190;16.366;2023-12-07T06:18:06;6.40;99.90
33645;DHT22;19986;48.190;16.366;2023-12-07T06:20:32;6.50;99.90
33645;DHT22;19986;48.190;16.366;2023-12-07T06:22:59;6.40;99.90
33645;DHT22;19986;48.190;16.366;2023-12-07T06:25:25;6.40;99.90
33645;DHT22;19986;48.190;16.366;2023-12-07T06:27:51;6.40;99.90
33645;DHT22;19986;48.190;16.366;2023-12-07T06:30:16;6.40;99.90
33645;DHT22;19986;48.190;16.366;2023-12-07T06:32:43;6.40;99.90
33645;DHT22;19986;48.190;16.366;2023-12-07T06:35:11;6.30;99.90
33645;DHT22;19986;48.190;16.366;2023-12-07T06:37:38;6.30;99.90
33645;DHT22;19986;48.190;16.366;2023-12-07T06:40:08;6.30;99.90
33645;DHT22;19986;48.190;16.366;2023-12-07T06:42:35;6.30;99.90
33645;DHT22;19986;48.190;16.366;2023-12-07T06:45:01;6.40;99.90
33645;DHT22;19986;48.190;16.366;2023-12-07T06:47:28;6.40;99.90
33645;DHT22;19986;48.190;16.366;2023-12-07T06:49:54;6.40;99.90
33645;DHT22;19986;48.190;16.366;2023-12-07T06:52:21;6.40;99.90
33645;DHT22;19986;48.190;16.366;2023-12-07T06:54:47;6.40;99.90
33645;DHT22;19986;48.190;16.366;2023-12-07T06:57:13;6.40;99.90
33645;DHT22;19986;48.190;16.366;2023-12-07T06:59:39;6.40;99.90
33645;DHT22;19986;48.190;16.366;2023-12-07T07:02:06;6.40;99.90
33645;DHT22;19986;48.190;16.366;2023-12-07T07:04:32;6.50;99.90
33645;DHT22;19986;48.190;16.366;2023-12-07T07:06:58;6.50;99.90
33645;DHT22;19986;48.190;16.366;2023-12-07T07:09:24;6.60;99.90
33645;DHT22;19986;48.190;16.366;2023-12-07T07:11:51;6.60;99.90
33645;DHT22;19986;48.190;16.366;2023-12-07T07:14:17;6.70;99.90
33645;DHT22;19986;48.190;16.366;2023-12-07T07:16:43;6.80;99.90
33645;DHT22;19986;48.190;16.366;2023-12-07T07:19:10;6.80;99.90
33645;DHT22;19986;48.190;16.366;2023-12-07T07:21:36;6.80;99.90
33645;DHT22;19986;48.190;16.366;2023-12-07T07:24:02;6.70;99.90
33645;DHT22;19986;48.190;16.366;2023-12-07T07:26:28;6.70;99.90
33645;DHT22;19986;48.190;16.366;2023-12-07T07:28:54;6.70;99.90
33645;DHT22;19986;48.190;16.366;2023-12-07T07:31:20;6.70;99.90
33645;DHT22;19986;48.190;16.366;2023-12-07T07:33:46;6.70;99.90
33645;DHT22;19986;48.190;16.366;2023-12-07T07:36:15;6.70;99.90
33645;DHT22;19986;48.190;16.366;2023-12-07T07:38:41;6.80;99.90
33645;DHT22;19986;48.190;16.366;2023-12-07T07:41:07;6.80;99.90
33645;DHT22;19986;48.190;16.366;2023-12-07T07:43:35;6.90;99.90
33645;DHT22;19986;48.190;16.366;2023-12-07T07:46:01;6.90;99.90
33645;DHT22;19986;48.190;16.366;2023-12-07T07:48:26;6.90;99.90
33645;DHT22;19986;48.190;16.366;2023-12-07T07:50:53;6.90;99.90
33645;DHT22;19986;48.190;16.366;2023-12-07T07:53:20;6.80;99.90
33645;DHT22;19986;48.190;16.366;2023-12-07T07:55:46;6.90;99.90
33645;DHT22;19986;48.190;16.366;2023-12-07T07:58:12;6.90;99.90
33645;DHT22;19986;48.190;16.366;2023-12-07T08:00:37;6.90;99.90
33645;DHT22;19986;48.190;16.366;2023-12-07T08:03:03;6.90;99.90
33645;DHT22;19986;48.190;16.366;2023-12-07T08:05:29;7.00;99.90
33645;DHT22;19986;48.190;16.366;2023-12-07T08:07:55;7.00;99.90
33645;DHT22;19986;48.190;16.366;2023-12-07T08:10:22;7.00;99.90
33645;DHT22;19986;48.190;16.366;2023-12-07T08:12:48;6.90;99.90
33645;DHT22;19986;48.190;16.366;2023-12-07T08:15:13;6.90;99.90
33645;DHT22;19986;48.190;16.366;2023-12-07T08:17:40;6.90;99.90
33645;DHT22;19986;48.190;16.366;2023-12-07T08:20:09;6.80;99.90
33645;DHT22;19986;48.190;16.366;2023-12-07T08:22:40;6.80;99.90
33645;DHT22;19986;48.190;16.366;2023-12-07T08:25:10;6.80;99.90
33645;DHT22;19986;48.190;16.366;2023-12-07T08:27:39;6.80;99.90
33645;DHT22;19986;48.190;16.366;2023-12-07T08:30:06;6.80;99.90
33645;DHT22;19986;48.190;16.366;2023-12-07T08:32:35;6.80;99.90
33645;DHT22;19986;48.190;16.366;2023-12-07T08:35:01;6.90;99.90
33645;DHT22;19986;48.190;16.366;2023-12-07T08:37:27;6.90;99.90
33645;DHT22;19986;48.190;16.366;2023-12-07T08:39:53;7.00;99.90
33645;DHT22;19986;48.190;16.366;2023-12-07T08:42:19;7.10;99.90
33645;DHT22;19986;48.190;16.366;2023-12-07T08:44:44;7.10;99.90
33645;DHT22;19986;48.190;16.366;2023-12-07T08:47:10;7.20;99.90
33645;DHT22;19986;48.190;16.366;2023-12-07T08:49:36;7.10;99.90
33645;DHT22;19986;48.190;16.366;2023-12-07T08:52:02;7.20;99.90
33645;DHT22;19986;48.190;16.366;2023-12-07T08:54:28;7.30;99.90
33645;DHT22;19986;48.190;16.366;2023-12-07T08:56:55;7.40;99.90
33645;DHT22;19986;48.190;16.366;2023-12-07T08:59:21;7.50;99.90
33645;DHT22;19986;48.190;16.366;2023-12-07T09:01:47;7.50;99.90
33645;DHT22;19986;48.190;16.366;2023-12-07T09:04:13;7.60;99.90
33645;DHT22;19986;48.190;16.366;2023-12-07T09:06:38;7.70;99.90
33645;DHT22;19986;48.190;16.366;2023-12-07T09:09:04;7.70;99.90
33645;DHT22;19986;48.190;16.366;2023-12-07T09:11:30;7.70;99.90
33645;DHT22;19986;48.190;16.366;2023-12-07T09:13:57;7.80;99.90
33645;DHT22;19986;48.190;16.366;2023-12-07T09:16:23;7.70;99.90
33645;DHT22;19986;48.190;16.366;2023-12-07T09:18:49;7.80;99.90
33645;DHT22;19986;48.190;16.366;2023-12-07T09:21:16;7.90;99.90
33645;DHT22;19986;48.190;16.366;2023-12-07T09:23:41;7.90;99.90
33645;DHT22;19986;48.190;16.366;2023-12-07T09:26:07;7.80;99.90
33645;DHT22;19986;48.190;16.366;2023-12-07T09:28:33;7.80;99.90
33645;DHT22;19986;48.190;16.366;2023-12-07T09:31:00;7.60;99.90
33645;DHT22;19986;48.190;16.366;2023-12-07T09:33:26;7.70;99.90
33645;DHT22;19986;48.190;16.366;2023-12-07T09:35:53;7.80;99.90
33645;DHT22;19986;48.190;16.366;2023-12-07T09:38:19;7.90;99.90
33645;DHT22;19986;48.190;16.366;2023-12-07T09:40:46;7.80;99.90
33645;DHT22;19986;48.190;16.366;2023-12-07T09:43:12;7.80;99.90
33645;DHT22;19986;48.190;16.366;2023-12-07T09:45:38;7.80;99.90
33645;DHT22;19986;48.190;16.366;2023-12-07T09:48:04;7.80;99.90
33645;DHT22;19986;48.190;16.366;2023-12-07T09:50:31;7.90;99.90
33645;DHT22;19986;48.190;16.366;2023-12-07T09:52:58;7.90;99.90
33645;DHT22;19986;48.190;16.366;2023-12-07T09:55:24;7.90;99.90
33645;DHT22;19986;48.190;16.366;2023-12-07T09:57:53;7.90;99.90
33645;DHT22;19986;48.190;16.366;2023-12-07T10:00:23;7.90;99.90
33645;DHT22;19986;48.190;16.366;2023-12-07T10:02:49;8.00;99.90
33645;DHT22;19986;48.190;16.366;2023-12-07T10:05:15;8.00;99.90
33645;DHT22;19986;48.190;16.366;2023-12-07T10:07:49;7.90;99.90
33645;DHT22;19986;48.190;16.366;2023-12-07T10:10:17;7.90;99.90
33645;DHT22;19986;48.190;16.366;2023-12-07T10:12:47;8.00;99.90
33645;DHT22;19986;48.190;16.366;2023-12-07T10:15:14;8.00;99.90
33645;DHT22;19986;48.190;16.366;2023-12-07T10:20:18;8.00;99.90
33645;DHT22;19986;48.190;16.366;2023-12-07T10:22:48;8.00;99.90
33645;DHT22;19986;48.190;16.366;2023-12-07T10:25:14;7.90;99.90
33645;DHT22;19986;48.190;16.366;2023-12-07T10:27:47;8.00;99.90
33645;DHT22;19986;48.190;16.366;2023-12-07T10:30:13;7.90;99.90
33645;DHT22;19986;48.190;16.366;2023-12-07T10:32:40;8.00;99.90
33645;DHT22;19986;48.190;16.366;2023-12-07T10:35:09;7.90;99.90
33645;DHT22;19986;48.190;16.366;2023-12-07T10:37:35;7.90;99.90
33645;DHT22;19986;48.190;16.366;2023-12-07T10:40:02;7.90;99.90
33645;DHT22;19986;48.190;16.366;2023-12-07T10:42:32;7.80;99.90
33645;DHT22;19986;48.190;16.366;2023-12-07T10:45:05;7.80;99.90
33645;DHT22;19986;48.190;16.366;2023-12-07T10:47:35;7.90;99.90
33645;DHT22;19986;48.190;16.366;2023-12-07T10:50:06;7.90;99.90
33645;DHT22;19986;48.190;16.366;2023-12-07T10:52:39;8.00;99.90
33645;DHT22;19986;48.190;16.366;2023-12-07T10:55:20;8.10;99.90
33645;DHT22;19986;48.190;16.366;2023-12-07T10:57:52;8.10;99.90
33645;DHT22;19986;48.190;16.366;2023-12-07T11:00:19;8.10;99.90
33645;DHT22;19986;48.190;16.366;2023-12-07T11:02:50;8.00;99.90
33645;DHT22;19986;48.190;16.366;2023-12-07T11:05:17;8.00;99.90
33645;DHT22;19986;48.190;16.366;2023-12-07T11:07:59;8.00;99.90
33645;DHT22;19986;48.190;16.366;2023-12-07T11:10:36;8.10;99.90
33645;DHT22;19986;48.190;16.366;2023-12-07T11:13:18;8.20;99.90
33645;DHT22;19986;48.190;16.366;2023-12-07T11:15:46;8.30;99.90
33645;DHT22;19986;48.190;16.366;2023-12-07T11:18:12;8.30;99.90
33645;DHT22;19986;48.190;16.366;2023-12-07T11:20:45;8.40;99.90
33645;DHT22;19986;48.190;16.366;2023-12-07T11:23:17;8.50;99.90
33645;DHT22;19986;48.190;16.366;2023-12-07T11:25:47;8.50;99.90
33645;DHT22;19986;48.190;16.366;2023-12-07T11:28:16;8.50;99.90
33645;DHT22;19986;48.190;16.366;2023-12-07T11:30:44;8.50;99.90
33645;DHT22;19986;48.190;16.366;2023-12-07T11:33:10;8.60;99.90
33645;DHT22;19986;48.190;16.366;2023-12-07T11:38:28;8.50;99.90
33645;DHT22;19986;48.190;16.366;2023-12-07T11:40:55;8.50;99.90
33645;DHT22;19986;48.190;16.366;2023-12-07T11:46:10;8.50;99.90
33645;DHT22;19986;48.190;16.366;2023-12-07T11:48:36;8.50;99.90
33645;DHT22;19986;48.190;16.366;2023-12-07T11:51:06;8.40;99.90
33645;DHT22;19986;48.190;16.366;2023-12-07T11:53:37;8.20;99.90
33645;DHT22;19986;48.190;16.366;2023-12-07T11:58:31;8.20;99.90
33645;DHT22;19986;48.190;16.366;2023-12-07T12:00:58;8.20;99.90
33645;DHT22;19986;48.190;16.366;2023-12-07T12:03:25;8.20;99.90
33645;DHT22;19986;48.190;16.366;2023-12-07T12:05:51;8.20;99.90
33645;DHT22;19986;48.190;16.366;2023-12-07T12:08:18;8.30;99.90
33645;DHT22;19986;48.190;16.366;2023-12-07T12:10:45;8.30;99.90
33645;DHT22;19986;48.190;16.366;2023-12-07T12:13:12;8.50;99.90
33645;DHT22;19986;48.190;16.366;2023-12-07T12:15:39;8.60;99.90
33645;DHT22;19986;48.190;16.366;2023-12-07T12:18:06;8.70;99.90
33645;DHT22;19986;48.190;16.366;2023-12-07T12:20:32;8.70;99.90
33645;DHT22;19986;48.190;16.366;2023-12-07T12:22:58;8.70;99.90
33645;DHT22;19986;48.190;16.366;2023-12-07T12:25:29;8.70;99.90
33645;DHT22;19986;48.190;16.366;2023-12-07T12:28:02;8.70;99.90
33645;DHT22;19986;48.190;16.366;2023-12-07T12:30:29;8.80;99.90
33645;DHT22;19986;48.190;16.366;2023-12-07T12:32:55;8.80;99.90
33645;DHT22;19986;48.190;16.366;2023-12-07T12:35:21;8.90;99.90
33645;DHT22;19986;48.190;16.366;2023-12-07T12:37:48;8.80;99.90
33645;DHT22;19986;48.190;16.366;2023-12-07T12:40:16;8.90;99.90
33645;DHT22;19986;48.190;16.366;2023-12-07T12:42:51;8.90;99.90
33645;DHT22;19986;48.190;16.366;2023-12-07T12:45:17;8.90;99.90
33645;DHT22;19986;48.190;16.366;2023-12-07T12:47:47;8.90;99.90
33645;DHT22;19986;48.190;16.366;2023-12-07T12:50:34;8.90;99.90
33645;DHT22;19986;48.190;16.366;2023-12-07T12:53:03;9.00;99.90
33645;DHT22;19986;48.190;16.366;2023-12-07T12:55:37;9.10;99.90
33645;DHT22;19986;48.190;16.366;2023-12-07T12:58:05;9.10;99.90
33645;DHT22;19986;48.190;16.366;2023-12-07T13:00:33;9.10;99.90
33645;DHT22;19986;48.190;16.366;2023-12-07T13:03:00;9.00;99.90
33645;DHT22;19986;48.190;16.366;2023-12-07T13:05:27;9.00;99.90
33645;DHT22;19986;48.190;16.366;2023-12-07T13:07:56;9.00;99.90
33645;DHT22;19986;48.190;16.366;2023-12-07T13:10:22;9.00;99.90
33645;DHT22;19986;48.190;16.366;2023-12-07T13:12:48;8.90;99.90
33645;DHT22;19986;48.190;16.366;2023-12-07T13:15:14;8.80;99.90
33645;DHT22;19986;48.190;16.366;2023-12-07T13:17:41;8.80;99.90
33645;DHT22;19986;48.190;16.366;2023-12-07T13:20:08;8.70;99.90
33645;DHT22;19986;48.190;16.366;2023-12-07T13:22:41;8.60;99.90
33645;DHT22;19986;48.190;16.366;2023-12-07T13:25:09;8.60;99.90
33645;DHT22;19986;48.190;16.366;2023-12-07T13:27:35;8.40;99.90
33645;DHT22;19986;48.190;16.366;2023-12-07T13:30:02;8.30;99.90
33645;DHT22;19986;48.190;16.366;2023-12-07T13:32:33;8.40;99.90
33645;DHT22;19986;48.190;16.366;2023-12-07T13:35:00;8.40;99.90
33645;DHT22;19986;48.190;16.366;2023-12-07T13:37:25;8.30;99.90
33645;DHT22;19986;48.190;16.366;2023-12-07T13:39:51;8.20;99.90
33645;DHT22;19986;48.190;16.366;2023-12-07T13:42:27;8.30;99.90
33645;DHT22;19986;48.190;16.366;2023-12-07T13:44:57;8.30;99.90
33645;DHT22;19986;48.190;16.366;2023-12-07T13:47:24;8.40;99.90
33645;DHT22;19986;48.190;16.366;2023-12-07T13:50:02;8.40;99.90
33645;DHT22;19986;48.190;16.366;2023-12-07T13:52:29;8.40;99.90
33645;DHT22;19986;48.190;16.366;2023-12-07T13:54:57;8.40;99.90
33645;DHT22;19986;48.190;16.366;2023-12-07T13:57:23;8.30;99.90
33645;DHT22;19986;48.190;16.366;2023-12-07T13:59:53;8.30;99.90
33645;DHT22;19986;48.190;16.366;2023-12-07T14:02:20;8.20;99.90
33645;DHT22;19986;48.190;16.366;2023-12-07T14:04:46;8.20;99.90
33645;DHT22;19986;48.190;16.366;2023-12-07T14:07:19;8.10;99.90
33645;DHT22;19986;48.190;16.366;2023-12-07T14:09:51;8.10;99.90
33645;DHT22;19986;48.190;16.366;2023-12-07T14:12:18;8.10;99.90
33645;DHT22;19986;48.190;16.366;2023-12-07T14:14:45;8.10;99.90
33645;DHT22;19986;48.190;16.366;2023-12-07T14:17:12;8.00;99.90
33645;DHT22;19986;48.190;16.366;2023-12-07T14:19:38;8.00;99.90
33645;DHT22;19986;48.190;16.366;2023-12-07T14:22:04;8.00;99.90
33645;DHT22;19986;48.190;16.366;2023-12-07T14:24:31;7.90;99.90
33645;DHT22;19986;48.190;16.366;2023-12-07T14:26:57;7.90;99.90
33645;DHT22;19986;48.190;16.366;2023-12-07T14:29:23;7.90;99.90
33645;DHT22;19986;48.190;16.366;2023-12-07T14:31:51;7.80;99.90
33645;DHT22;19986;48.190;16.366;2023-12-07T14:34:17;7.80;99.90
33645;DHT22;19986;48.190;16.366;2023-12-07T14:36:44;7.70;99.90
33645;DHT22;19986;48.190;16.366;2023-12-07T14:39:11;7.70;99.90
33645;DHT22;19986;48.190;16.366;2023-12-07T14:41:47;7.60;99.90
33645;DHT22;19986;48.190;16.366;2023-12-07T14:44:17;7.60;99.90
33645;DHT22;19986;48.190;16.366;2023-12-07T14:46:47;7.50;99.90
33645;DHT22;19986;48.190;16.366;2023-12-07T14:49:15;7.50;99.90
33645;DHT22;19986;48.190;16.366;2023-12-07T14:51:42;7.40;99.90
33645;DHT22;19986;48.190;16.366;2023-12-07T14:54:08;7.40;99.90
33645;DHT22;19986;48.190;16.366;2023-12-07T14:56:40;7.30;99.90
33645;DHT22;19986;48.190;16.366;2023-12-07T14:59:07;7.30;99.90
33645;DHT22;19986;48.190;16.366;2023-12-07T15:01:33;7.30;99.90
33645;DHT22;19986;48.190;16.366;2023-12-07T15:03:59;7.30;99.90
33645;DHT22;19986;48.190;16.366;2023-12-07T15:06:25;7.30;99.90
33645;DHT22;19986;48.190;16.366;2023-12-07T15:08:52;7.20;99.90
33645;DHT22;19986;48.190;16.366;2023-12-07T15:11:18;7.10;99.90
33645;DHT22;19986;48.190;16.366;2023-12-07T15:13:44;7.10;99.90
33645;DHT22;19986;48.190;16.366;2023-12-07T15:16:10;7.10;99.90
33645;DHT22;19986;48.190;16.366;2023-12-07T15:18:36;7.20;99.90
33645;DHT22;19986;48.190;16.366;2023-12-07T15:21:05;7.10;99.90
33645;DHT22;19986;48.190;16.366;2023-12-07T15:23:31;7.10;99.90
33645;DHT22;19986;48.190;16.366;2023-12-07T15:26:00;7.10;99.90
33645;DHT22;19986;48.190;16.366;2023-12-07T15:28:28;7.10;99.90
33645;DHT22;19986;48.190;16.366;2023-12-07T15:30:54;7.10;99.90
33645;DHT22;19986;48.190;16.366;2023-12-07T15:33:20;7.10;99.90
33645;DHT22;19986;48.190;16.366;2023-12-07T15:35:47;7.10;99.90
33645;DHT22;19986;48.190;16.366;2023-12-07T15:38:14;7.10;99.90
33645;DHT22;19986;48.190;16.366;2023-12-07T15:40:41;7.00;99.90
33645;DHT22;19986;48.190;16.366;2023-12-07T15:43:08;6.90;99.90